Time;durP1;ratioP1;P1;durP2;ratioP2;P2;SDS_P1;SDS_P2;PMS_P1;PMS_P2;Temp;Humidity;BMP_temperature;BMP_pressure;BME280_temperature;BME280_humidity;BME280_pressure;Samples;Min_cycle;Max_cycle;Signal;HPM_P1;HPM_P2
2021/12/13 00:00:34;;;;;;;1.52;0.73;;;17.70;64.80;;;;;;5117237;27;46568;-75
2021/12/13 00:03:08;;;;;;;1.38;0.70;;;17.60;64.70;;;;;;5119415;27;45284;-76
2021/12/13 00:05:40;;;;;;;1.10;0.80;;;17.60;64.80;;;;;;5121779;27;45291;-75
2021/12/13 00:08:11;;;;;;;0.75;0.50;;;17.60;64.80;;;;;;5119824;27;45477;-76
2021/12/13 00:10:41;;;;;;;0.60;0.60;;;17.60;64.90;;;;;;5126847;27;45622;-75
2021/12/13 00:13:12;;;;;;;1.10;0.60;;;17.60;64.90;;;;;;5122051;27;45463;-78
2021/12/13 00:15:48;;;;;;;1.50;0.73;;;17.60;64.90;;;;;;5129724;27;45631;-78
2021/12/13 00:18:21;;;;;;;1.02;0.70;;;17.60;64.90;;;;;;5127610;27;46161;-78
2021/12/13 00:20:54;;;;;;;2.47;0.80;;;17.60;64.70;;;;;;5128728;27;45460;-78
2021/12/13 00:23:28;;;;;;;1.02;0.82;;;17.60;64.70;;;;;;5118904;27;45524;-78
2021/12/13 00:25:57;;;;;;;0.88;0.80;;;17.60;64.70;;;;;;5109273;27;45532;-76
2021/12/13 00:28:27;;;;;;;1.92;0.70;;;17.60;64.70;;;;;;5130158;27;45307;-75
2021/12/13 00:31:02;;;;;;;1.48;0.80;;;17.60;64.70;;;;;;5129803;27;47445;-76
2021/12/13 00:33:37;;;;;;;1.00;0.80;;;17.60;65.70;;;;;;5128505;27;45456;-75
2021/12/13 00:36:10;;;;;;;0.85;0.70;;;17.60;64.70;;;;;;5129153;27;45321;-75
2021/12/13 00:38:42;;;;;;;1.17;0.60;;;17.60;64.70;;;;;;5129252;27;45508;-75
2021/12/13 00:41:14;;;;;;;1.05;0.60;;;17.60;64.50;;;;;;5128716;27;47509;-75
2021/12/13 00:43:49;;;;;;;0.60;0.55;;;17.70;64.50;;;;;;5128510;27;45454;-75
2021/12/13 00:46:16;;;;;;;1.27;0.60;;;17.70;64.70;;;;;;5129854;27;45628;-76
2021/12/13 00:48:46;;;;;;;0.68;0.47;;;17.70;64.70;;;;;;5124908;27;45547;-76
2021/12/13 00:51:20;;;;;;;1.02;0.60;;;17.70;64.60;;;;;;5127661;27;48049;-75
2021/12/13 00:53:49;;;;;;;0.95;0.70;;;17.60;64.60;;;;;;5125341;27;45587;-75
2021/12/13 00:56:46;;;;;;;1.23;0.80;;;17.60;64.60;;;;;;5127255;27;45364;-75
2021/12/13 00:59:19;;;;;;;0.73;0.43;;;17.60;64.70;;;;;;5127044;27;45641;-75
2021/12/13 01:01:52;;;;;;;0.73;0.47;;;17.60;64.60;;;;;;5128709;27;46485;-75
2021/12/13 01:04:19;;;;;;;0.68;0.57;;;17.60;65.50;;;;;;5129859;27;46030;-76
2021/12/13 01:07:23;;;;;;;1.25;0.70;;;17.60;64.40;;;;;;5130358;27;45483;-78
2021/12/13 01:10:23;;;;;;;1.02;0.77;;;17.60;64.20;;;;;;5127399;27;45598;-78
2021/12/13 01:12:51;;;;;;;1.48;0.60;;;17.60;64.20;;;;;;5123598;27;45723;-78
2021/12/13 01:15:28;;;;;;;0.73;0.60;;;17.60;64.40;;;;;;5128388;27;45271;-78
2021/12/13 01:18:04;;;;;;;0.95;0.70;;;17.70;64.60;;;;;;5126270;27;45439;-78
2021/12/13 01:20:55;;;;;;;1.63;0.60;;;17.60;64.50;;;;;;5129118;27;45715;-78
2021/12/13 01:23:38;;;;;;;1.35;0.73;;;17.70;64.40;;;;;;5124262;27;47453;-78
2021/12/13 01:26:27;;;;;;;0.77;0.70;;;17.70;64.50;;;;;;5116784;27;45297;-78
2021/12/13 01:28:59;;;;;;;0.60;0.60;;;17.60;65.50;;;;;;5123833;27;45498;-75
2021/12/13 01:31:34;;;;;;;0.65;0.43;;;17.70;64.40;;;;;;5112647;27;45393;-75
2021/12/13 01:34:03;;;;;;;1.00;0.68;;;17.60;64.30;;;;;;5128182;27;45283;-78
2021/12/13 01:36:38;;;;;;;0.60;0.50;;;17.70;64.30;;;;;;5121079;27;45231;-75
2021/12/13 01:39:09;;;;;;;0.85;0.50;;;17.70;64.30;;;;;;5128902;27;45085;-76
2021/12/13 01:41:44;;;;;;;1.58;0.68;;;17.70;64.10;;;;;;5128585;27;45263;-76
2021/12/13 01:44:15;;;;;;;1.50;0.65;;;17.70;64.00;;;;;;5128505;27;46194;-76
2021/12/13 01:46:44;;;;;;;0.50;0.50;;;17.70;64.00;;;;;;5117747;27;45297;-75
2021/12/13 01:49:11;;;;;;;1.23;0.80;;;17.60;64.00;;;;;;5128157;27;45291;-75
2021/12/13 01:51:39;;;;;;;0.50;0.50;;;17.70;64.20;;;;;;5128508;27;45468;-76
2021/12/13 01:54:10;;;;;;;1.42;0.70;;;17.60;65.10;;;;;;5128383;27;45439;-76
2021/12/13 01:56:43;;;;;;;0.73;0.47;;;17.60;64.10;;;;;;5126765;27;45368;-75
2021/12/13 01:59:40;;;;;;;0.75;0.55;;;17.60;64.20;;;;;;5122158;27;45228;-76
2021/12/13 02:02:14;;;;;;;2.42;0.82;;;17.60;64.10;;;;;;5125078;27;45618;-77
2021/12/13 02:04:42;;;;;;;1.75;0.82;;;17.60;64.10;;;;;;5110883;27;46835;-78
2021/12/13 02:07:09;;;;;;;0.70;0.70;;;17.60;64.10;;;;;;5127238;27;45528;-78
2021/12/13 02:09:40;;;;;;;0.80;0.60;;;17.60;64.10;;;;;;5127982;27;45739;-76
2021/12/13 02:12:13;;;;;;;1.25;0.60;;;17.60;64.00;;;;;;5126225;27;45262;-76
2021/12/13 02:14:47;;;;;;;1.20;0.50;;;17.70;65.00;;;;;;5120594;27;46195;-75
2021/12/13 02:17:17;;;;;;;0.70;0.60;;;17.70;63.80;;;;;;5128252;27;45394;-75
2021/12/13 02:19:49;;;;;;;1.67;0.73;;;17.70;63.90;;;;;;5128867;27;45328;-75
2021/12/13 02:22:30;;;;;;;1.35;0.50;;;17.70;63.80;;;;;;5127534;27;45404;-75
2021/12/13 02:25:00;;;;;;;0.80;0.57;;;17.70;63.70;;;;;;5127662;27;46236;-77
2021/12/13 02:27:31;;;;;;;1.13;0.68;;;17.70;63.70;;;;;;5127831;27;45414;-78
2021/12/13 02:30:03;;;;;;;3.83;0.80;;;17.70;63.70;;;;;;5132117;27;45285;-78
2021/12/13 02:32:35;;;;;;;1.15;0.70;;;17.70;63.60;;;;;;5133061;27;46032;-78
2021/12/13 02:35:05;;;;;;;1.02;0.60;;;17.70;63.60;;;;;;5130580;27;45491;-78
2021/12/13 02:37:34;;;;;;;1.17;0.60;;;17.70;63.60;;;;;;5132071;27;45665;-78
2021/12/13 02:40:03;;;;;;;0.50;0.35;;;17.70;63.70;;;;;;5132466;27;45320;-78
2021/12/13 02:42:31;;;;;;;0.85;0.60;;;17.60;63.70;;;;;;5130076;27;45529;-78
2021/12/13 02:45:11;;;;;;;1.05;0.50;;;17.70;63.70;;;;;;5131225;27;46481;-76
2021/12/13 02:47:43;;;;;;;0.70;0.50;;;17.60;63.70;;;;;;5131344;27;45275;-78
2021/12/13 02:50:14;;;;;;;0.77;0.50;;;17.60;63.80;;;;;;5124845;27;45195;-78
2021/12/13 02:52:43;;;;;;;0.63;0.63;;;17.60;63.60;;;;;;5121411;27;45496;-78
2021/12/13 02:55:15;;;;;;;1.20;0.55;;;17.60;63.60;;;;;;5129991;27;46210;-78
2021/12/13 02:57:47;;;;;;;0.47;0.47;;;17.60;63.60;;;;;;5118943;27;45593;-78
2021/12/13 03:00:21;;;;;;;1.35;0.90;;;17.60;63.60;;;;;;5129871;27;45198;-78
2021/12/13 03:02:54;;;;;;;0.68;0.63;;;17.60;63.60;;;;;;5125773;27;45150;-78
2021/12/13 03:05:25;;;;;;;1.15;0.52;;;17.60;63.50;;;;;;5130357;27;45852;-77
2021/12/13 03:07:56;;;;;;;1.40;0.63;;;17.70;63.60;;;;;;5128910;27;45537;-78
2021/12/13 03:10:27;;;;;;;0.80;0.60;;;17.70;63.60;;;;;;5119650;27;45235;-78
2021/12/13 03:12:54;;;;;;;0.80;0.55;;;17.70;63.50;;;;;;5124632;27;45341;-78
2021/12/13 03:15:24;;;;;;;0.63;0.45;;;17.70;63.50;;;;;;5130220;27;46207;-78
2021/12/13 03:17:58;;;;;;;0.60;0.60;;;17.70;63.50;;;;;;5131718;27;45189;-78
2021/12/13 03:21:02;;;;;;;0.90;0.60;;;17.70;63.50;;;;;;5129894;27;45156;-75
2021/12/13 03:23:48;;;;;;;0.95;0.50;;;17.70;63.60;;;;;;5119361;27;45595;-75
2021/12/13 03:26:38;;;;;;;1.55;0.57;;;17.70;64.60;;;;;;5110864;27;48076;-75
2021/12/13 03:29:16;;;;;;;0.57;0.50;;;17.70;65.40;;;;;;5138194;27;45242;-75
2021/12/13 03:31:46;;;;;;;0.60;0.50;;;17.70;65.30;;;;;;5130913;27;45221;-75
2021/12/13 03:34:16;;;;;;;0.57;0.40;;;17.70;65.60;;;;;;5131527;27;45607;-76
2021/12/13 03:36:59;;;;;;;0.38;0.30;;;17.60;65.20;;;;;;5129013;27;47991;-76
2021/12/13 03:39:33;;;;;;;1.13;0.60;;;17.60;64.90;;;;;;5122244;27;45466;-76
2021/12/13 03:42:05;;;;;;;0.68;0.52;;;17.70;65.40;;;;;;5130660;27;45178;-76
2021/12/13 03:44:41;;;;;;;0.40;0.40;;;17.60;65.40;;;;;;5131214;27;45187;-76
2021/12/13 03:47:13;;;;;;;0.52;0.40;;;17.60;65.40;;;;;;5130833;27;45451;-76
2021/12/13 03:49:44;;;;;;;0.60;0.47;;;17.60;65.30;;;;;;5128492;27;45292;-76
2021/12/13 03:52:14;;;;;;;1.38;0.50;;;17.60;65.70;;;;;;5127598;27;45458;-76
2021/12/13 03:54:43;;;;;;;0.45;0.40;;;17.60;65.40;;;;;;5121133;27;45330;-77
2021/12/13 03:57:12;;;;;;;0.82;0.63;;;17.60;65.50;;;;;;5127954;27;45582;-76
2021/12/13 03:59:42;;;;;;;0.55;0.47;;;17.60;65.50;;;;;;5128012;27;45216;-76
2021/12/13 04:02:13;;;;;;;0.95;0.57;;;17.60;65.70;;;;;;5128572;27;45416;-76
2021/12/13 04:04:43;;;;;;;0.65;0.47;;;17.70;65.70;;;;;;5128617;27;45498;-76
2021/12/13 04:07:17;;;;;;;0.80;0.50;;;17.70;65.80;;;;;;5127295;27;47912;-76
2021/12/13 04:09:48;;;;;;;1.50;0.50;;;17.70;66.00;;;;;;5128758;27;45272;-76
2021/12/13 04:12:16;;;;;;;0.60;0.52;;;17.70;66.10;;;;;;5124501;27;45305;-76
2021/12/13 04:14:48;;;;;;;0.70;0.50;;;17.70;66.10;;;;;;5129649;27;45205;-76
2021/12/13 04:17:23;;;;;;;0.85;0.70;;;17.70;66.10;;;;;;5126893;27;45284;-76
2021/12/13 04:19:58;;;;;;;1.30;0.50;;;17.70;66.30;;;;;;5128787;27;45294;-76
2021/12/13 04:22:28;;;;;;;1.00;0.50;;;17.60;66.20;;;;;;5115663;27;45491;-76
2021/12/13 04:25:00;;;;;;;0.90;0.60;;;17.60;66.20;;;;;;5128263;27;45242;-76
2021/12/13 04:27:32;;;;;;;1.42;0.60;;;17.60;66.20;;;;;;5109171;27;45535;-76
2021/12/13 04:30:03;;;;;;;1.13;0.60;;;17.60;66.20;;;;;;5124614;27;45180;-76
2021/12/13 04:32:33;;;;;;;1.88;0.60;;;17.60;66.30;;;;;;5128614;27;45267;-76
2021/12/13 04:35:06;;;;;;;1.15;0.50;;;17.60;66.30;;;;;;5128597;27;45564;-76
2021/12/13 04:37:38;;;;;;;1.08;0.60;;;17.60;66.20;;;;;;5125851;27;47036;-76
2021/12/13 04:40:11;;;;;;;1.67;0.68;;;17.60;66.30;;;;;;5129233;27;45276;-76
2021/12/13 04:42:39;;;;;;;0.68;0.40;;;17.70;66.30;;;;;;5127090;27;45271;-76
2021/12/13 04:45:12;;;;;;;1.27;0.90;;;17.70;66.20;;;;;;5128550;27;45403;-76
2021/12/13 04:47:47;;;;;;;0.77;0.70;;;17.60;66.00;;;;;;5126125;27;47720;-76
2021/12/13 04:50:17;;;;;;;0.45;0.45;;;17.70;66.40;;;;;;5126379;27;45351;-76
2021/12/13 04:52:45;;;;;;;0.60;0.60;;;17.70;66.40;;;;;;5121022;27;45401;-76
2021/12/13 04:55:26;;;;;;;0.55;0.55;;;17.70;66.10;;;;;;5118720;27;45460;-76
2021/12/13 04:57:57;;;;;;;0.70;0.65;;;17.70;66.30;;;;;;5114154;27;45494;-76
2021/12/13 05:00:28;;;;;;;0.80;0.60;;;17.70;66.30;;;;;;5116045;27;45354;-76
2021/12/13 05:02:59;;;;;;;1.27;0.63;;;17.70;66.20;;;;;;5121063;27;45520;-76
2021/12/13 05:05:26;;;;;;;1.50;0.65;;;17.70;66.20;;;;;;5108403;27;46112;-76
2021/12/13 05:07:54;;;;;;;1.25;0.70;;;17.70;66.20;;;;;;5119030;27;47231;-76
2021/12/13 05:10:25;;;;;;;1.30;0.68;;;17.70;66.10;;;;;;5128529;27;45261;-76
2021/12/13 05:13:02;;;;;;;1.00;0.47;;;17.70;66.20;;;;;;5123203;27;45322;-76
2021/12/13 05:18:08;;;;;;;0.90;0.70;;;17.70;66.50;;;;;;5060436;28;45407;-76
2021/12/13 05:20:37;;;;;;;0.52;0.43;;;17.70;66.40;;;;;;5064788;28;45665;-77
2021/12/13 05:23:09;;;;;;;0.95;0.70;;;17.70;66.40;;;;;;5066482;28;45290;-77
2021/12/13 05:25:41;;;;;;;1.55;0.63;;;17.70;66.30;;;;;;5079142;28;45368;-77
2021/12/13 05:28:13;;;;;;;0.68;0.65;;;17.60;66.20;;;;;;5068384;28;48129;-76
2021/12/13 05:30:48;;;;;;;0.57;0.50;;;17.70;66.20;;;;;;5066897;28;45296;-77
2021/12/13 05:33:19;;;;;;;0.55;0.52;;;17.70;66.30;;;;;;5066553;28;45180;-77
2021/12/13 05:35:48;;;;;;;0.77;0.70;;;17.70;66.30;;;;;;5067150;28;45178;-77
2021/12/13 05:38:28;;;;;;;0.95;0.70;;;17.70;66.20;;;;;;5064891;28;45996;-77
2021/12/13 05:40:57;;;;;;;0.98;0.60;;;17.70;66.30;;;;;;5055022;28;45154;-77
2021/12/13 05:43:28;;;;;;;0.55;0.50;;;17.70;66.20;;;;;;5073834;28;45200;-77
2021/12/13 05:46:00;;;;;;;1.13;0.60;;;17.70;66.10;;;;;;5067227;28;45687;-77
2021/12/13 05:48:42;;;;;;;0.93;0.60;;;17.70;66.00;;;;;;5068686;28;46291;-77
2021/12/13 05:51:22;;;;;;;0.60;0.60;;;17.70;66.10;;;;;;5086842;28;45656;-77
2021/12/13 05:53:56;;;;;;;0.80;0.60;;;17.70;65.90;;;;;;5067474;28;45599;-77
2021/12/13 05:56:29;;;;;;;0.80;0.60;;;17.70;65.90;;;;;;5067450;28;45228;-77
2021/12/13 05:59:08;;;;;;;0.93;0.57;;;17.70;66.00;;;;;;5072023;28;46552;-77
2021/12/13 06:01:54;;;;;;;0.82;0.50;;;17.70;66.00;;;;;;5064846;28;45278;-77
2021/12/13 06:04:27;;;;;;;0.93;0.50;;;17.70;65.90;;;;;;5078111;28;45252;-77
2021/12/13 06:06:56;;;;;;;0.50;0.43;;;17.70;66.00;;;;;;5078676;28;45479;-77
2021/12/13 06:09:46;;;;;;;0.60;0.50;;;17.70;65.90;;;;;;5070461;28;46989;-77
2021/12/13 06:12:17;;;;;;;0.60;0.57;;;17.70;65.90;;;;;;5068977;28;45383;-77
2021/12/13 06:14:44;;;;;;;0.77;0.60;;;17.70;66.00;;;;;;5067417;28;45307;-77
2021/12/13 06:17:17;;;;;;;1.20;0.50;;;17.60;66.10;;;;;;5066460;28;45362;-77
2021/12/13 06:19:55;;;;;;;0.52;0.40;;;17.60;66.50;;;;;;5066651;28;47817;-77
2021/12/13 06:22:25;;;;;;;1.08;0.40;;;17.60;66.90;;;;;;5070952;28;45257;-77
2021/12/13 06:24:55;;;;;;;0.90;0.60;;;17.60;67.00;;;;;;5085305;28;45189;-77
2021/12/13 06:27:26;;;;;;;0.55;0.55;;;17.60;67.20;;;;;;5069430;28;45555;-77
2021/12/13 06:29:59;;;;;;;2.30;0.90;;;17.60;66.40;;;;;;5067750;28;47368;-78
2021/12/13 06:32:40;;;;;;;1.20;0.70;;;17.60;65.40;;;;;;5069855;28;45314;-77
2021/12/13 06:35:33;;;;;;;0.82;0.57;;;17.60;64.50;;;;;;5068495;28;45401;-76
2021/12/13 06:38:22;;;;;;;0.60;0.50;;;17.60;63.70;;;;;;5071562;28;45185;-76
2021/12/13 06:40:51;;;;;;;0.73;0.57;;;17.60;63.10;;;;;;5059036;28;47878;-76
2021/12/13 06:43:30;;;;;;;0.98;0.55;;;17.60;63.10;;;;;;5068988;28;45142;-76
2021/12/13 06:45:57;;;;;;;0.93;0.60;;;17.60;64.60;;;;;;5067004;28;45512;-77
2021/12/13 06:48:35;;;;;;;1.73;0.60;;;17.60;65.90;;;;;;5068118;28;45350;-77
2021/12/13 06:51:02;;;;;;;0.55;0.45;;;17.60;66.80;;;;;;5063351;28;47850;-76
2021/12/13 06:53:29;;;;;;;1.80;0.80;;;17.60;67.20;;;;;;5064134;28;45438;-78
2021/12/13 06:55:56;;;;;;;0.88;0.57;;;17.60;66.40;;;;;;5069561;28;45324;-77
2021/12/13 06:58:27;;;;;;;1.58;0.90;;;17.60;65.60;;;;;;5066596;28;45624;-77
2021/12/13 07:00:58;;;;;;;1.80;0.50;;;17.70;65.20;;;;;;5069499;28;48363;-76
2021/12/13 07:03:32;;;;;;;1.52;0.60;;;17.70;65.30;;;;;;5064271;28;45564;-77
2021/12/13 07:06:01;;;;;;;0.47;0.35;;;17.70;65.90;;;;;;5068891;28;45257;-79
2021/12/13 07:08:31;;;;;;;3.20;0.90;;;17.70;65.70;;;;;;5062352;28;45211;-77
2021/12/13 07:11:03;;;;;;;0.95;0.57;;;17.70;66.10;;;;;;5070908;28;48367;-77
2021/12/13 07:13:35;;;;;;;0.85;0.55;;;17.70;66.10;;;;;;5065204;28;45276;-77
2021/12/13 07:16:06;;;;;;;0.77;0.40;;;17.70;65.80;;;;;;5070337;28;45494;-77
2021/12/13 07:18:42;;;;;;;1.38;0.82;;;17.70;65.60;;;;;;5067194;28;45405;-76
2021/12/13 07:21:12;;;;;;;0.82;0.50;;;17.70;65.40;;;;;;5069921;28;45947;-77
2021/12/13 07:23:53;;;;;;;0.63;0.50;;;17.70;65.80;;;;;;5055904;28;45417;-77
2021/12/13 07:26:31;;;;;;;0.98;0.55;;;17.70;65.70;;;;;;5057834;28;45255;-77
2021/12/13 07:29:00;;;;;;;0.93;0.60;;;17.70;66.20;;;;;;5059465;28;47290;-75
2021/12/13 07:31:27;;;;;;;2.03;0.40;;;17.80;66.30;;;;;;5058822;28;46201;-78
2021/12/13 07:33:54;;;;;;;0.77;0.50;;;17.80;66.60;;;;;;5054513;28;46190;-77
2021/12/13 07:36:24;;;;;;;1.13;0.73;;;17.80;67.10;;;;;;5062525;28;45442;-77
2021/12/13 07:38:56;;;;;;;4.13;0.70;;;17.80;67.30;;;;;;5066478;28;45592;-77
2021/12/13 07:41:25;;;;;;;0.93;0.60;;;17.80;67.30;;;;;;5074902;28;46480;-77
2021/12/13 07:43:52;;;;;;;0.82;0.50;;;17.80;67.30;;;;;;5070220;28;45319;-77
2021/12/13 07:46:28;;;;;;;0.65;0.57;;;17.80;67.30;;;;;;5056874;28;45420;-77
2021/12/13 07:48:58;;;;;;;0.65;0.45;;;17.80;67.30;;;;;;5068616;28;45445;-77
2021/12/13 07:51:27;;;;;;;0.50;0.40;;;17.80;67.20;;;;;;5069514;28;45350;-77
2021/12/13 07:54:02;;;;;;;0.40;0.40;;;17.80;67.10;;;;;;5063201;28;45440;-77
2021/12/13 07:56:42;;;;;;;1.08;0.60;;;17.80;67.20;;;;;;5071743;28;46073;-78
2021/12/13 07:59:13;;;;;;;0.73;0.50;;;17.80;67.20;;;;;;5072923;28;45311;-77
2021/12/13 08:01:48;;;;;;;1.02;0.45;;;17.80;67.10;;;;;;5068284;28;47257;-77
2021/12/13 08:04:18;;;;;;;1.23;0.63;;;17.80;67.10;;;;;;5068014;28;45339;-77
2021/12/13 08:06:51;;;;;;;0.70;0.50;;;17.80;67.10;;;;;;5066202;28;45453;-77
2021/12/13 08:09:22;;;;;;;0.50;0.50;;;17.80;67.10;;;;;;5067209;28;45510;-78
2021/12/13 08:11:54;;;;;;;0.55;0.40;;;17.80;67.10;;;;;;5074118;28;47308;-78
2021/12/13 08:14:30;;;;;;;0.98;0.40;;;17.80;67.10;;;;;;5066726;28;46155;-78
2021/12/13 08:17:09;;;;;;;0.60;0.40;;;17.80;67.30;;;;;;5083917;28;45321;-78
2021/12/13 08:19:36;;;;;;;0.60;0.55;;;17.80;67.40;;;;;;5063409;28;45446;-78
2021/12/13 08:22:11;;;;;;;0.75;0.45;;;17.80;67.40;;;;;;5068507;28;46460;-78
2021/12/13 08:24:44;;;;;;;0.52;0.43;;;17.80;67.50;;;;;;5064547;28;45403;-78
2021/12/13 08:27:16;;;;;;;1.23;0.28;;;17.80;67.50;;;;;;5067853;28;45292;-78
2021/12/13 08:29:44;;;;;;;0.35;0.30;;;17.80;67.50;;;;;;5069082;28;45572;-78
2021/12/13 08:32:16;;;;;;;0.45;0.43;;;17.80;67.60;;;;;;5072575;28;47383;-78
2021/12/13 08:34:47;;;;;;;0.30;0.30;;;17.80;67.50;;;;;;5059861;28;45560;-78
2021/12/13 08:37:26;;;;;;;0.73;0.50;;;17.80;67.50;;;;;;5073670;28;45332;-78
2021/12/13 08:39:57;;;;;;;1.40;0.68;;;17.90;67.50;;;;;;5075345;28;45249;-79
2021/12/13 08:42:27;;;;;;;0.73;0.40;;;17.90;67.30;;;;;;5075281;28;45286;-79
2021/12/13 08:45:04;;;;;;;0.85;0.50;;;17.80;67.30;;;;;;5059806;28;45554;-79
2021/12/13 08:47:39;;;;;;;0.52;0.50;;;17.80;67.50;;;;;;5064785;28;45502;-79
2021/12/13 08:50:11;;;;;;;0.73;0.40;;;17.80;67.50;;;;;;5067805;28;45620;-79
2021/12/13 08:52:41;;;;;;;0.63;0.32;;;17.80;67.60;;;;;;5065622;28;46548;-79
2021/12/13 08:55:22;;;;;;;0.80;0.50;;;17.70;67.30;;;;;;5062569;28;45458;-79
2021/12/13 08:57:55;;;;;;;0.82;0.40;;;17.70;66.80;;;;;;5068364;28;45350;-80
2021/12/13 09:00:36;;;;;;;0.60;0.40;;;17.70;66.60;;;;;;5065652;28;45378;-79
2021/12/13 09:03:25;;;;;;;1.35;0.50;;;17.70;66.70;;;;;;5072302;28;45654;-79
2021/12/13 09:05:57;;;;;;;2.38;0.50;;;17.70;66.80;;;;;;5075354;28;45257;-79
2021/12/13 09:08:30;;;;;;;0.45;0.40;;;17.70;67.10;;;;;;5067398;28;45438;-80
2021/12/13 09:11:01;;;;;;;0.40;0.40;;;17.70;67.40;;;;;;5067108;28;45489;-80
2021/12/13 09:13:39;;;;;;;1.40;0.70;;;17.70;67.00;;;;;;5069747;28;46217;-80
2021/12/13 09:16:06;;;;;;;0.75;0.43;;;17.70;67.20;;;;;;5075102;28;45687;-80
2021/12/13 09:18:35;;;;;;;0.98;0.55;;;17.80;67.50;;;;;;5070365;28;45445;-80
2021/12/13 09:21:04;;;;;;;2.60;0.50;;;17.80;67.60;;;;;;5067533;28;45311;-80
2021/12/13 09:23:37;;;;;;;0.50;0.40;;;17.80;67.30;;;;;;5068454;28;46811;-80
2021/12/13 09:26:07;;;;;;;0.65;0.50;;;17.80;67.10;;;;;;5075058;28;45398;-80
2021/12/13 09:28:36;;;;;;;0.70;0.57;;;17.80;67.50;;;;;;5081531;28;46452;-80
2021/12/13 09:31:09;;;;;;;0.68;0.50;;;17.80;67.70;;;;;;5068277;28;45359;-80
2021/12/13 09:33:39;;;;;;;0.75;0.50;;;17.80;67.80;;;;;;5078955;28;48109;-80
2021/12/13 09:36:10;;;;;;;0.93;0.50;;;17.70;68.00;;;;;;5066300;28;45499;-80
2021/12/13 09:38:52;;;;;;;0.65;0.40;;;17.70;68.00;;;;;;5080316;28;45485;-80
2021/12/13 09:41:38;;;;;;;0.52;0.40;;;17.80;68.10;;;;;;5073755;28;45740;-80
2021/12/13 09:44:23;;;;;;;0.40;0.40;;;17.70;68.00;;;;;;5069347;28;46202;-80
2021/12/13 09:46:57;;;;;;;2.53;0.50;;;17.70;68.00;;;;;;5069759;28;45395;-80
2021/12/13 09:49:30;;;;;;;0.65;0.50;;;17.70;68.00;;;;;;5070310;28;45210;-80
2021/12/13 09:52:00;;;;;;;0.40;0.40;;;17.70;67.90;;;;;;5070776;28;45150;-80
2021/12/13 09:54:30;;;;;;;2.05;0.43;;;17.80;68.00;;;;;;5085785;28;46373;-80
2021/12/13 09:57:00;;;;;;;1.20;0.63;;;17.80;68.00;;;;;;5074540;28;45201;-80
2021/12/13 09:59:30;;;;;;;0.30;0.30;;;17.70;67.90;;;;;;5082740;28;45267;-80
2021/12/13 10:02:00;;;;;;;0.82;0.50;;;17.80;67.70;;;;;;5074142;28;45422;-80
2021/12/13 10:04:32;;;;;;;0.40;0.40;;;17.80;67.80;;;;;;5069869;28;45516;-80
2021/12/13 10:07:04;;;;;;;0.63;0.40;;;17.80;67.70;;;;;;5068997;28;45323;-80
2021/12/13 10:09:35;;;;;;;0.40;0.30;;;17.80;67.90;;;;;;5070222;28;45377;-80
2021/12/13 10:12:07;;;;;;;0.40;0.40;;;17.80;67.70;;;;;;5064272;28;45331;-80
2021/12/13 10:14:37;;;;;;;0.50;0.40;;;17.80;68.00;;;;;;5060788;28;48305;-80
2021/12/13 10:17:06;;;;;;;0.32;0.32;;;17.80;67.70;;;;;;5073450;28;45380;-80
2021/12/13 10:19:40;;;;;;;0.35;0.35;;;17.80;67.70;;;;;;5071281;28;45344;-80
2021/12/13 10:22:11;;;;;;;0.90;0.60;;;17.80;68.00;;;;;;5074370;28;45669;-80
2021/12/13 10:24:41;;;;;;;0.50;0.43;;;17.80;67.80;;;;;;5076299;28;46222;-80
2021/12/13 10:27:11;;;;;;;0.90;0.40;;;17.80;68.10;;;;;;5075090;28;45387;-80
2021/12/13 10:29:39;;;;;;;0.77;0.50;;;17.70;68.20;;;;;;5063576;28;45648;-80
2021/12/13 10:32:09;;;;;;;0.65;0.47;;;17.70;68.30;;;;;;5065873;28;45455;-80
2021/12/13 10:34:40;;;;;;;0.70;0.47;;;17.70;68.40;;;;;;5061383;28;46256;-81
2021/12/13 10:37:11;;;;;;;0.50;0.40;;;17.70;68.50;;;;;;5064291;28;45251;-79
2021/12/13 10:39:43;;;;;;;0.98;0.57;;;17.70;68.60;;;;;;5081758;28;45272;-79
2021/12/13 10:42:13;;;;;;;0.52;0.40;;;17.70;68.40;;;;;;5071818;28;45403;-78
2021/12/13 10:44:44;;;;;;;0.50;0.50;;;17.70;68.50;;;;;;5067925;28;46189;-78
2021/12/13 10:47:18;;;;;;;0.93;0.50;;;17.70;68.50;;;;;;5068541;28;45350;-78
2021/12/13 10:49:48;;;;;;;0.68;0.45;;;17.70;68.30;;;;;;5067871;28;45298;-78
2021/12/13 10:52:22;;;;;;;0.45;0.45;;;17.70;68.20;;;;;;5067554;28;46350;-78
2021/12/13 10:54:52;;;;;;;1.25;0.50;;;17.70;68.20;;;;;;5068727;28;46228;-78
2021/12/13 10:57:22;;;;;;;0.65;0.50;;;17.80;68.20;;;;;;5065905;28;45331;-78
2021/12/13 10:59:50;;;;;;;0.50;0.50;;;17.80;68.20;;;;;;5073623;28;45329;-78
2021/12/13 11:02:20;;;;;;;0.73;0.50;;;17.80;68.10;;;;;;5067716;28;45301;-79
2021/12/13 11:04:54;;;;;;;1.27;0.43;;;17.80;68.00;;;;;;5068449;28;47980;-79
2021/12/13 11:07:22;;;;;;;1.17;0.35;;;17.80;68.30;;;;;;5068060;28;45244;-79
2021/12/13 11:09:52;;;;;;;3.58;0.50;;;17.80;68.10;;;;;;5069405;28;45285;-79
2021/12/13 11:12:22;;;;;;;0.32;0.30;;;17.80;68.20;;;;;;5079443;28;45345;-79
2021/12/13 11:14:52;;;;;;;1.25;0.60;;;17.80;68.00;;;;;;5087883;28;46476;-79
2021/12/13 11:17:22;;;;;;;0.98;0.73;;;17.80;68.20;;;;;;5068079;28;45319;-79
2021/12/13 11:19:55;;;;;;;1.02;0.60;;;17.80;68.30;;;;;;5065740;28;45339;-79
2021/12/13 11:22:28;;;;;;;0.47;0.40;;;17.80;68.20;;;;;;5066640;28;45477;-78
2021/12/13 11:24:56;;;;;;;0.52;0.43;;;17.80;68.30;;;;;;5070012;28;47722;-79
2021/12/13 11:27:26;;;;;;;0.82;0.40;;;17.70;68.30;;;;;;5078286;28;45342;-78
2021/12/13 11:29:54;;;;;;;0.47;0.47;;;17.80;68.40;;;;;;5054857;28;45714;-78
2021/12/13 11:33:05;;;;;;;1.65;0.30;;;17.80;68.40;;;;;;5056138;28;45578;-78
2021/12/13 11:36:22;;;;;;;1.52;0.40;;;17.80;69.40;;;;;;5075380;28;46326;-79
2021/12/13 11:39:15;;;;;;;0.35;0.30;;;17.80;68.50;;;;;;5070262;28;45256;-79
2021/12/13 11:42:13;;;;;;;0.52;0.28;;;17.80;68.40;;;;;;5067063;28;45398;-79
2021/12/13 11:45:03;;;;;;;0.20;0.20;;;17.80;68.10;;;;;;5026334;28;45525;-79
2021/12/13 11:47:53;;;;;;;0.60;0.30;;;17.80;69.20;;;;;;5073538;28;45325;-79
2021/12/13 11:50:43;;;;;;;0.38;0.20;;;17.80;68.30;;;;;;5062500;28;45335;-78
2021/12/13 11:53:52;;;;;;;2.40;0.55;;;17.80;68.40;;;;;;5064973;28;45426;-79
2021/12/13 11:56:41;;;;;;;6.97;0.80;;;17.80;68.80;;;;;;4988330;28;45698;-81
2021/12/13 11:59:25;;;;;;;4.55;0.50;;;17.80;69.80;;;;;;5072258;28;48166;-81
2021/12/13 12:02:19;;;;;;;1.17;0.20;;;17.80;70.40;;;;;;5072616;28;45262;-81
2021/12/13 12:05:35;;;;;;;0.93;0.10;;;17.70;70.80;;;;;;5061858;28;45413;-81
2021/12/13 12:08:37;;;;;;;2.60;0.47;;;17.70;71.50;;;;;;5050555;28;45523;-81
2021/12/13 12:11:43;;;;;;;0.82;0.35;;;17.70;72.70;;;;;;5054592;28;46621;-81
2021/12/13 12:14:12;;;;;;;0.50;0.30;;;17.70;72.90;;;;;;5048833;28;45217;-81
2021/12/13 12:16:42;;;;;;;2.10;0.38;;;17.60;73.00;;;;;;5059913;28;45790;-81
2021/12/13 12:19:13;;;;;;;0.65;0.30;;;17.60;73.60;;;;;;5064027;28;45655;-81
2021/12/13 12:21:48;;;;;;;2.00;0.20;;;17.60;74.20;;;;;;5068113;28;45366;-82
2021/12/13 12:24:17;;;;;;;0.55;0.28;;;17.70;74.60;;;;;;5075805;28;45217;-80
2021/12/13 12:26:49;;;;;;;0.57;0.25;;;17.70;74.80;;;;;;5065699;28;45270;-82
2021/12/13 12:29:23;;;;;;;3.03;0.50;;;17.80;74.80;;;;;;5080572;28;45589;-81
2021/12/13 12:31:59;;;;;;;1.02;0.45;;;17.80;74.90;;;;;;5071303;28;45829;-80
2021/12/13 12:34:26;;;;;;;1.27;0.47;;;17.80;75.00;;;;;;5061433;28;45274;-79
2021/12/13 12:37:17;;;;;;;0.70;0.30;;;17.80;73.90;;;;;;5073074;28;45146;-79
2021/12/13 12:40:18;;;;;;;2.35;0.40;;;17.80;74.30;;;;;;5066301;28;45182;-82
2021/12/13 12:42:47;;;;;;;0.30;0.20;;;17.90;73.80;;;;;;5065198;28;45324;-79
2021/12/13 12:45:21;;;;;;;0.28;0.28;;;17.90;73.80;;;;;;5067265;28;45244;-78
2021/12/13 12:48:11;;;;;;;0.22;0.20;;;17.90;73.60;;;;;;5064890;28;45259;-78
2021/12/13 12:50:43;;;;;;;0.43;0.28;;;18.00;73.70;;;;;;5058469;28;46275;-79
2021/12/13 12:53:14;;;;;;;1.95;0.40;;;18.00;73.70;;;;;;5065019;28;46184;-79
2021/12/13 12:55:46;;;;;;;0.40;0.30;;;18.00;73.80;;;;;;5071200;28;45295;-80
2021/12/13 12:58:18;;;;;;;1.23;0.30;;;18.00;73.80;;;;;;5067394;28;45696;-80
2021/12/13 13:00:49;;;;;;;0.57;0.22;;;18.00;73.80;;;;;;5063255;28;45247;-80
2021/12/13 13:03:23;;;;;;;0.28;0.20;;;18.00;73.90;;;;;;5063454;28;47130;-80
2021/12/13 13:05:50;;;;;;;0.80;0.40;;;18.00;74.20;;;;;;5060456;28;45235;-81
2021/12/13 13:08:28;;;;;;;0.43;0.25;;;18.00;75.50;;;;;;5070453;28;45354;-81
2021/12/13 13:11:20;;;;;;;0.93;0.30;;;18.00;74.60;;;;;;5071362;28;45680;-81
2021/12/13 13:13:45;;;;;;;1.23;0.30;;;18.00;75.10;;;;;;5066840;28;45240;-81
2021/12/13 13:16:16;;;;;;;1.08;0.75;;;18.00;75.10;;;;;;5066174;28;45282;-80
2021/12/13 13:18:43;;;;;;;0.45;0.30;;;17.90;76.20;;;;;;5066132;28;45311;-81
2021/12/13 13:21:11;;;;;;;0.32;0.30;;;17.90;75.20;;;;;;5070571;28;46831;-80
2021/12/13 13:23:46;;;;;;;0.77;0.38;;;17.90;75.30;;;;;;5066928;28;47798;-81
2021/12/13 13:26:15;;;;;;;0.63;0.40;;;17.90;74.80;;;;;;5065060;28;45274;-81